Radiance Of The Seas — C6SE7 — position and weather

sailwx.info

Track history (hours):
 
Tides and Currents Weather Stations Pressure Air Temp Water Temp Dewpoint Dewpoint Depression Visibility Wind Speed Wind Dir Waves Ship Positions

Radiance Of The Seas

Operator: Royal Caribbean Cruises Ltd

Last reported at 2016-Aug-29 04:00 UTC. Time now 2016-Aug-29 23:25 UTC.
Position N 56°00' W 132°42'.

Type: Passenger vessel. MMSI: 311319000.

Wind from 130 at 10 knots

Barometer 1009.0 mb
Air temperature 15.0 ° C
Water temperature 12.0 ° C

Date/timePositionNaut miles runAvg speedWind from/ knotsBaromVisibWave heightAir tempDewpointWater temp
2016-Aug-29 04:00N 56°00' W 132°42'56 4.7 130 / 101009.0 15.0 12.0
2016-Aug-28 16:00N 55°18' W 131°36'28011.7 040 / 11011.0 14.012.313.0
2016-Aug-27 16:04N 51°08' W 128°07'814.3
2016-Aug-27 15:32N 51°04' W 127°57'1313.4
2016-Aug-27 14:33N 50°56' W 127°41'1514.6
2016-Aug-27 13:33N 50°48' W 127°21'1514.5
2016-Aug-27 12:33N 50°43' W 126°60'6416.0
2016-Aug-27 08:33N 50°20' W 125°25'1413.7
2016-Aug-27 07:33N 50°07' W 125°18'1211.9
2016-Aug-27 06:34N 49°57' W 125°08'3617.8
2016-Aug-27 04:33N 49°32' W 124°29'1717.1
2016-Aug-27 03:33N 49°23' W 124°06'1818.4
2016-Aug-27 02:33N 49°20' W 123°39'1818.2
2016-Aug-27 01:33N 49°19' W 123°11'3 3.1
2016-Aug-27 00:31N 49°17' W 123°07'0 0.0
2016-Aug-26 23:31N 49°17' W 123°07'0 0.0
2016-Aug-26 22:31N 49°17' W 123°07'0 0.0
2016-Aug-26 21:31N 49°17' W 123°07'0 0.0
2016-Aug-26 20:31N 49°17' W 123°07'0 0.0
2016-Aug-26 19:28N 49°17' W 123°07'0 0.0
2016-Aug-26 18:31N 49°17' W 123°07'0 0.0
2016-Aug-26 17:31N 49°17' W 123°07'0 0.0
2016-Aug-26 16:31N 49°17' W 123°07'0 0.0
2016-Aug-26 15:31N 49°17' W 123°07'0 0.0
2016-Aug-26 14:31N 49°17' W 123°07'1 1.5
2016-Aug-26 14:00N 49°18' W 123°06'1 3.4 140 / 61015.0 17.0 15.0
2016-Aug-26 13:33N 49°19' W 123°08'1414.4
2016-Aug-26 12:33N 49°19' W 123°30'1514.8
2016-Aug-26 11:33N 49°20' W 123°53'1514.8
2016-Aug-26 10:34N 49°24' W 124°15'1414.3
2016-Aug-26 09:33N 49°33' W 124°33'1514.9
2016-Aug-26 08:33N 49°44' W 124°48'1514.9
2016-Aug-26 07:33N 49°54' W 125°04'1414.1
2016-Aug-26 06:33N 50°06' W 125°17'6917.0
2016-Aug-26 02:31N 50°40' W 126°51'2121.6
2016-Aug-26 01:33N 50°48' W 127°21'2019.7
2016-Aug-26 00:33N 50°59' W 127°47'1817.9
2016-Aug-25 23:33N 51°09' W 128°10'2214.0
2016-Aug-25 22:00N 51°24' W 128°36'25213.3 320 / 201022.0 5.4 3.017.0 14.0
2016-Aug-25 03:00N 55°12' W 131°36'7 6.9 350 / 15 5.4 0.521.0 14.0
2016-Aug-25 02:00N 55°18' W 131°30'206 7.9 300 / 141029.0 0.523.0 14.0
2016-Aug-24 00:00N 58°06' W 135°06'6 0.6 140 / 131029.0 16.0 11.0
2016-Aug-23 14:00N 58°06' W 135°18'32 0.7 130 / 111023.0 1.014.0 13.0
2016-Aug-21 16:00N 58°12' W 134°18'39 8.8 290 / 131013.0 5.4 11.0 12.0
2016-Aug-21 11:33N 58°14' W 135°32'1717.6
2016-Aug-21 10:33N 58°20' W 136°04'41914.2
2016-Aug-20 05:00N 60°00' W 149°18'   200 / 121022.0 5.4
Track history (hours):
 
Tides and Currents Weather Stations Pressure Air Temp Water Temp Dewpoint Dewpoint Depression Visibility Wind Speed Wind Dir Waves Ship Positions

Radiance Of The Seas

Operator: Royal Caribbean Cruises Ltd

Last reported at 2016-Aug-29 04:00 UTC. Time now 2016-Aug-29 23:25 UTC.
Position N 56°00' W 132°42'.

Type: Passenger vessel. MMSI: 311319000.

Wind from 130 at 10 knots

Barometer 1009.0 mb
Air temperature 15.0 ° C
Water temperature 12.0 ° C

Date/timePositionNaut miles runAvg speedWind from/ knotsBaromVisibWave heightAir tempDewpointWater temp
2016-Aug-29 04:00N 56°00' W 132°42'56 4.7 130 / 101009.0 15.0 12.0
2016-Aug-28 16:00N 55°18' W 131°36'28011.7 040 / 11011.0 14.012.313.0
2016-Aug-27 16:04N 51°08' W 128°07'814.3
2016-Aug-27 15:32N 51°04' W 127°57'1313.4
2016-Aug-27 14:33N 50°56' W 127°41'1514.6
2016-Aug-27 13:33N 50°48' W 127°21'1514.5
2016-Aug-27 12:33N 50°43' W 126°60'6416.0
2016-Aug-27 08:33N 50°20' W 125°25'1413.7
2016-Aug-27 07:33N 50°07' W 125°18'1211.9
2016-Aug-27 06:34N 49°57' W 125°08'3617.8
2016-Aug-27 04:33N 49°32' W 124°29'1717.1
2016-Aug-27 03:33N 49°23' W 124°06'1818.4
2016-Aug-27 02:33N 49°20' W 123°39'1818.2
2016-Aug-27 01:33N 49°19' W 123°11'3 3.1
2016-Aug-27 00:31N 49°17' W 123°07'0 0.0
2016-Aug-26 23:31N 49°17' W 123°07'0 0.0
2016-Aug-26 22:31N 49°17' W 123°07'0 0.0
2016-Aug-26 21:31N 49°17' W 123°07'0 0.0
2016-Aug-26 20:31N 49°17' W 123°07'0 0.0
2016-Aug-26 19:28N 49°17' W 123°07'0 0.0
2016-Aug-26 18:31N 49°17' W 123°07'0 0.0
2016-Aug-26 17:31N 49°17' W 123°07'0 0.0
2016-Aug-26 16:31N 49°17' W 123°07'0 0.0
2016-Aug-26 15:31N 49°17' W 123°07'0 0.0
2016-Aug-26 14:31N 49°17' W 123°07'1 1.5
2016-Aug-26 14:00N 49°18' W 123°06'1 3.4 140 / 61015.0 17.0 15.0
2016-Aug-26 13:33N 49°19' W 123°08'1414.4
2016-Aug-26 12:33N 49°19' W 123°30'1514.8
2016-Aug-26 11:33N 49°20' W 123°53'1514.8
2016-Aug-26 10:34N 49°24' W 124°15'1414.3
2016-Aug-26 09:33N 49°33' W 124°33'1514.9
2016-Aug-26 08:33N 49°44' W 124°48'1514.9
2016-Aug-26 07:33N 49°54' W 125°04'1414.1
2016-Aug-26 06:33N 50°06' W 125°17'6917.0
2016-Aug-26 02:31N 50°40' W 126°51'2121.6
2016-Aug-26 01:33N 50°48' W 127°21'2019.7
2016-Aug-26 00:33N 50°59' W 127°47'1817.9
2016-Aug-25 23:33N 51°09' W 128°10'2214.0
2016-Aug-25 22:00N 51°24' W 128°36'25213.3 320 / 201022.0 5.4 3.017.0 14.0
2016-Aug-25 03:00N 55°12' W 131°36'7 6.9 350 / 15 5.4 0.521.0 14.0
2016-Aug-25 02:00N 55°18' W 131°30'206 7.9 300 / 141029.0 0.523.0 14.0
2016-Aug-24 00:00N 58°06' W 135°06'6 0.6 140 / 131029.0 16.0 11.0
2016-Aug-23 14:00N 58°06' W 135°18'32 0.7 130 / 111023.0 1.014.0 13.0
2016-Aug-21 16:00N 58°12' W 134°18'39 8.8 290 / 131013.0 5.4 11.0 12.0
2016-Aug-21 11:33N 58°14' W 135°32'1717.6
2016-Aug-21 10:33N 58°20' W 136°04'41914.2
2016-Aug-20 05:00N 60°00' W 149°18'   200 / 121022.0 5.4

Dump ship's entire track history